sensor_id;sensor_type;location;lat;lon;timestamp;pressure;altitude;pressure_sealevel;temperature;humidity
67457;BME280;54319;52.038;4.640;2023-02-15T00:01:30;103066.50;;;0.78;92.04
67457;BME280;54319;52.038;4.640;2023-02-15T00:03:57;103107.41;;;0.97;92.02
67457;BME280;54319;52.038;4.640;2023-02-15T00:06:24;103102.22;;;0.94;92.29
67457;BME280;54319;52.038;4.640;2023-02-15T00:08:53;103092.88;;;0.85;91.99
67457;BME280;54319;52.038;4.640;2023-02-15T00:11:20;103089.72;;;0.79;92.10
67457;BME280;54319;52.038;4.640;2023-02-15T00:14:08;103086.66;;;0.85;92.23
67457;BME280;54319;52.038;4.640;2023-02-15T00:16:35;103093.00;;;0.84;92.21
67457;BME280;54319;52.038;4.640;2023-02-15T00:19:02;103088.47;;;0.84;92.33
67457;BME280;54319;52.038;4.640;2023-02-15T00:21:30;103063.00;;;0.76;92.69
67457;BME280;54319;52.038;4.640;2023-02-15T00:24:00;103078.41;;;0.88;92.64
67457;BME280;54319;52.038;4.640;2023-02-15T00:26:27;103072.09;;;0.89;93.05
67457;BME280;54319;52.038;4.640;2023-02-15T00:28:54;103069.00;;;0.95;92.78
67457;BME280;54319;52.038;4.640;2023-02-15T00:31:22;103036.75;;;0.81;93.08
67457;BME280;54319;52.038;4.640;2023-02-15T00:33:50;103073.06;;;1.03;93.05
67457;BME280;54319;52.038;4.640;2023-02-15T00:36:16;103068.63;;;1.01;93.04
67457;BME280;54319;52.038;4.640;2023-02-15T00:38:44;103071.50;;;0.98;93.10
67457;BME280;54319;52.038;4.640;2023-02-15T00:41:10;103077.66;;;1.00;93.20
67457;BME280;54319;52.038;4.640;2023-02-15T00:43:38;103064.53;;;0.96;93.14
67457;BME280;54319;52.038;4.640;2023-02-15T00:46:06;103069.22;;;0.92;93.17
67457;BME280;54319;52.038;4.640;2023-02-15T00:48:35;103077.47;;;0.89;93.26
67457;BME280;54319;52.038;4.640;2023-02-15T00:51:01;103068.50;;;0.89;93.37
67457;BME280;54319;52.038;4.640;2023-02-15T00:53:29;103066.53;;;0.92;93.33
67457;BME280;54319;52.038;4.640;2023-02-15T00:55:56;103046.53;;;0.82;93.44
67457;BME280;54319;52.038;4.640;2023-02-15T00:58:23;103068.25;;;0.93;93.53
67457;BME280;54319;52.038;4.640;2023-02-15T01:00:50;103069.41;;;0.89;93.38
67457;BME280;54319;52.038;4.640;2023-02-15T01:03:19;103065.53;;;0.79;93.07
67457;BME280;54319;52.038;4.640;2023-02-15T01:05:50;103036.13;;;0.61;93.23
67457;BME280;54319;52.038;4.640;2023-02-15T01:08:17;103038.81;;;0.61;93.14
67457;BME280;54319;52.038;4.640;2023-02-15T01:10:44;103059.84;;;0.69;93.27
67457;BME280;54319;52.038;4.640;2023-02-15T01:13:13;103039.00;;;0.58;93.25
67457;BME280;54319;52.038;4.640;2023-02-15T01:15:40;103057.34;;;0.66;92.99
67457;BME280;54319;52.038;4.640;2023-02-15T01:18:07;103056.41;;;0.67;93.38
67457;BME280;54319;52.038;4.640;2023-02-15T01:20:36;103040.66;;;0.75;93.54
67457;BME280;54319;52.038;4.640;2023-02-15T01:23:07;103038.38;;;0.83;93.71
67457;BME280;54319;52.038;4.640;2023-02-15T01:25:35;102969.91;;;0.46;93.83
67457;BME280;54319;52.038;4.640;2023-02-15T01:28:03;103024.56;;;0.90;93.82
67457;BME280;54319;52.038;4.640;2023-02-15T01:30:30;103023.59;;;0.91;93.94
67457;BME280;54319;52.038;4.640;2023-02-15T01:32:58;103024.38;;;0.93;94.01
67457;BME280;54319;52.038;4.640;2023-02-15T01:35:26;103024.47;;;0.91;94.38
67457;BME280;54319;52.038;4.640;2023-02-15T01:37:53;103019.09;;;0.77;93.92
67457;BME280;54319;52.038;4.640;2023-02-15T01:40:23;103021.41;;;0.83;93.79
67457;BME280;54319;52.038;4.640;2023-02-15T01:42:52;103018.13;;;0.78;93.85
67457;BME280;54319;52.038;4.640;2023-02-15T01:45:22;103021.94;;;0.74;93.74
67457;BME280;54319;52.038;4.640;2023-02-15T01:47:52;103023.84;;;0.71;93.79
67457;BME280;54319;52.038;4.640;2023-02-15T01:50:24;103002.53;;;0.54;93.92
67457;BME280;54319;52.038;4.640;2023-02-15T01:52:58;103018.00;;;0.65;93.83
67457;BME280;54319;52.038;4.640;2023-02-15T01:55:30;102994.09;;;0.46;93.56
67457;BME280;54319;52.038;4.640;2023-02-15T01:58:00;102947.41;;;0.18;93.79
67457;BME280;54319;52.038;4.640;2023-02-15T02:00:27;103001.97;;;0.49;93.72
67457;BME280;54319;52.038;4.640;2023-02-15T02:02:55;103011.09;;;0.61;93.91
67457;BME280;54319;52.038;4.640;2023-02-15T02:05:22;103011.56;;;0.67;94.17
67457;BME280;54319;52.038;4.640;2023-02-15T02:07:51;103007.09;;;0.68;94.32
67457;BME280;54319;52.038;4.640;2023-02-15T02:10:20;102998.91;;;0.69;94.26
67457;BME280;54319;52.038;4.640;2023-02-15T02:12:52;102976.06;;;0.48;94.42
67457;BME280;54319;52.038;4.640;2023-02-15T02:15:23;102967.13;;;0.47;94.11
67457;BME280;54319;52.038;4.640;2023-02-15T02:18:01;102991.22;;;0.63;94.00
67457;BME280;54319;52.038;4.640;2023-02-15T02:20:48;102993.91;;;0.63;94.29
67457;BME280;54319;52.038;4.640;2023-02-15T02:23:30;102994.88;;;0.62;94.33
67457;BME280;54319;52.038;4.640;2023-02-15T02:29:53;102975.56;;;0.41;94.19
67457;BME280;54319;52.038;4.640;2023-02-15T02:32:50;102958.47;;;0.27;94.12
67457;BME280;54319;52.038;4.640;2023-02-15T02:35:22;102981.03;;;0.39;94.50
67457;BME280;54319;52.038;4.640;2023-02-15T02:38:02;102958.72;;;0.23;94.41
67457;BME280;54319;52.038;4.640;2023-02-15T02:40:36;102968.91;;;0.32;94.25
67457;BME280;54319;52.038;4.640;2023-02-15T02:43:11;102969.09;;;0.29;94.05
67457;BME280;54319;52.038;4.640;2023-02-15T02:45:46;102924.31;;;-0.01;94.17
67457;BME280;54319;52.038;4.640;2023-02-15T02:48:20;102955.28;;;0.21;94.16
67457;BME280;54319;52.038;4.640;2023-02-15T02:50:48;102951.03;;;0.17;94.29
67457;BME280;54319;52.038;4.640;2023-02-15T02:53:16;102929.53;;;0.02;94.09
67457;BME280;54319;52.038;4.640;2023-02-15T02:55:44;102935.75;;;0.03;94.20
67457;BME280;54319;52.038;4.640;2023-02-15T02:58:16;102950.66;;;0.08;94.36
67457;BME280;54319;52.038;4.640;2023-02-15T03:00:49;102951.78;;;0.04;94.34
67457;BME280;54319;52.038;4.640;2023-02-15T03:03:24;102948.34;;;0.02;94.25
67457;BME280;54319;52.038;4.640;2023-02-15T03:05:54;102923.44;;;-0.16;94.10
67457;BME280;54319;52.038;4.640;2023-02-15T03:08:27;102947.63;;;-0.02;94.32
67457;BME280;54319;52.038;4.640;2023-02-15T03:10:59;102946.84;;;-0.04;94.38
67457;BME280;54319;52.038;4.640;2023-02-15T03:13:27;102948.66;;;-0.04;94.27
67457;BME280;54319;52.038;4.640;2023-02-15T03:15:55;102948.78;;;-0.06;94.31
67457;BME280;54319;52.038;4.640;2023-02-15T03:18:47;102950.56;;;-0.06;94.34
67457;BME280;54319;52.038;4.640;2023-02-15T03:21:19;102951.53;;;-0.07;94.18
67457;BME280;54319;52.038;4.640;2023-02-15T03:23:53;102936.50;;;-0.10;94.45
67457;BME280;54319;52.038;4.640;2023-02-15T03:26:21;102907.78;;;-0.24;94.60
67457;BME280;54319;52.038;4.640;2023-02-15T03:28:53;102878.34;;;-0.25;94.70
67457;BME280;54319;52.038;4.640;2023-02-15T03:31:23;102932.63;;;0.10;94.50
67457;BME280;54319;52.038;4.640;2023-02-15T03:33:57;102930.72;;;0.12;94.69
67457;BME280;54319;52.038;4.640;2023-02-15T03:36:30;102923.88;;;0.07;94.33
67457;BME280;54319;52.038;4.640;2023-02-15T03:39:05;102924.84;;;0.06;94.32
67457;BME280;54319;52.038;4.640;2023-02-15T03:41:39;102910.13;;;-0.03;94.29
67457;BME280;54319;52.038;4.640;2023-02-15T03:44:11;102917.47;;;0.09;94.65
67457;BME280;54319;52.038;4.640;2023-02-15T03:46:43;102924.56;;;0.10;94.52
67457;BME280;54319;52.038;4.640;2023-02-15T03:49:15;102922.84;;;0.09;94.65
67457;BME280;54319;52.038;4.640;2023-02-15T03:51:46;102903.47;;;0.04;94.56
67457;BME280;54319;52.038;4.640;2023-02-15T03:54:20;102908.38;;;0.12;94.56
67457;BME280;54319;52.038;4.640;2023-02-15T03:57:02;102914.69;;;0.11;94.83
67457;BME280;54319;52.038;4.640;2023-02-15T03:59:47;102913.16;;;0.07;94.61
67457;BME280;54319;52.038;4.640;2023-02-15T04:02:37;102891.97;;;0.02;94.51
67457;BME280;54319;52.038;4.640;2023-02-15T04:05:08;102896.78;;;0.11;94.84
67457;BME280;54319;52.038;4.640;2023-02-15T04:07:35;102892.06;;;0.15;94.88
67457;BME280;54319;52.038;4.640;2023-02-15T04:10:01;102893.81;;;0.16;94.75
67457;BME280;54319;52.038;4.640;2023-02-15T04:12:46;102894.00;;;0.13;94.84
67457;BME280;54319;52.038;4.640;2023-02-15T04:15:13;102859.34;;;-0.06;94.71
67457;BME280;54319;52.038;4.640;2023-02-15T04:17:58;102881.34;;;0.15;95.05
67457;BME280;54319;52.038;4.640;2023-02-15T04:20:28;102856.13;;;0.03;95.40
67457;BME280;54319;52.038;4.640;2023-02-15T04:23:13;102882.72;;;0.22;95.16
67457;BME280;54319;52.038;4.640;2023-02-15T04:25:57;102886.34;;;0.21;95.04
67457;BME280;54319;52.038;4.640;2023-02-15T04:28:25;102880.50;;;0.14;94.88
67457;BME280;54319;52.038;4.640;2023-02-15T04:30:51;102875.31;;;0.11;94.98
67457;BME280;54319;52.038;4.640;2023-02-15T04:33:18;102847.06;;;-0.10;94.88
67457;BME280;54319;52.038;4.640;2023-02-15T04:35:46;102876.66;;;0.19;95.20
67457;BME280;54319;52.038;4.640;2023-02-15T04:38:13;102878.69;;;0.30;95.16
67457;BME280;54319;52.038;4.640;2023-02-15T04:40:40;102888.16;;;0.35;95.45
67457;BME280;54319;52.038;4.640;2023-02-15T04:43:07;102888.94;;;0.37;95.44
67457;BME280;54319;52.038;4.640;2023-02-15T04:45:34;102836.28;;;0.06;95.27
67457;BME280;54319;52.038;4.640;2023-02-15T04:48:01;102881.19;;;0.33;95.19
67457;BME280;54319;52.038;4.640;2023-02-15T04:50:28;102814.09;;;-0.12;95.18
67457;BME280;54319;52.038;4.640;2023-02-15T04:52:56;102860.16;;;0.25;95.05
67457;BME280;54319;52.038;4.640;2023-02-15T04:55:24;102868.31;;;0.52;95.40
67457;BME280;54319;52.038;4.640;2023-02-15T04:57:52;102839.88;;;0.50;95.52
67457;BME280;54319;52.038;4.640;2023-02-15T05:00:19;102871.69;;;0.70;95.43
67457;BME280;54319;52.038;4.640;2023-02-15T05:02:46;102861.63;;;0.74;95.47
67457;BME280;54319;52.038;4.640;2023-02-15T05:05:12;102876.59;;;0.78;95.24
67457;BME280;54319;52.038;4.640;2023-02-15T05:07:40;102876.00;;;0.73;95.52
67457;BME280;54319;52.038;4.640;2023-02-15T05:10:08;102857.69;;;0.65;95.42
67457;BME280;54319;52.038;4.640;2023-02-15T05:12:36;102861.69;;;0.72;95.52
67457;BME280;54319;52.038;4.640;2023-02-15T05:15:02;102817.63;;;0.48;95.50
67457;BME280;54319;52.038;4.640;2023-02-15T05:17:30;102858.06;;;0.74;95.69
67457;BME280;54319;52.038;4.640;2023-02-15T05:19:56;102857.09;;;0.75;95.74
67457;BME280;54319;52.038;4.640;2023-02-15T05:22:23;102845.38;;;0.76;96.37
67457;BME280;54319;52.038;4.640;2023-02-15T05:24:50;102854.59;;;0.86;96.25
67457;BME280;54319;52.038;4.640;2023-02-15T05:27:35;102847.69;;;0.82;96.16
67457;BME280;54319;52.038;4.640;2023-02-15T05:30:21;102848.75;;;0.79;96.14
67457;BME280;54319;52.038;4.640;2023-02-15T05:32:48;102855.97;;;0.79;96.12
67457;BME280;54319;52.038;4.640;2023-02-15T05:35:15;102844.44;;;0.77;96.22
67457;BME280;54319;52.038;4.640;2023-02-15T05:37:42;102839.84;;;0.79;96.28
67457;BME280;54319;52.038;4.640;2023-02-15T05:40:10;102810.84;;;0.69;96.14
67457;BME280;54319;52.038;4.640;2023-02-15T05:42:40;102846.91;;;0.94;96.01
67457;BME280;54319;52.038;4.640;2023-02-15T05:45:07;102840.97;;;0.89;96.30
67457;BME280;54319;52.038;4.640;2023-02-15T05:47:34;102844.06;;;0.83;96.21
67457;BME280;54319;52.038;4.640;2023-02-15T05:50:01;102835.31;;;0.79;95.93
67457;BME280;54319;52.038;4.640;2023-02-15T05:52:28;102824.19;;;0.71;96.01
67457;BME280;54319;52.038;4.640;2023-02-15T05:54:55;102834.56;;;0.77;96.43
67457;BME280;54319;52.038;4.640;2023-02-15T05:57:21;102833.78;;;0.75;96.33
67457;BME280;54319;52.038;4.640;2023-02-15T05:59:50;102832.16;;;0.72;96.32
67457;BME280;54319;52.038;4.640;2023-02-15T06:02:16;102813.94;;;0.63;96.51
67457;BME280;54319;52.038;4.640;2023-02-15T06:04:44;102829.25;;;0.76;96.66
67457;BME280;54319;52.038;4.640;2023-02-15T06:07:11;102825.72;;;0.75;96.52
67457;BME280;54319;52.038;4.640;2023-02-15T06:09:38;102831.66;;;0.95;97.04
67457;BME280;54319;52.038;4.640;2023-02-15T06:12:05;102835.66;;;1.02;97.14
67457;BME280;54319;52.038;4.640;2023-02-15T06:14:32;102838.34;;;1.02;97.05
67457;BME280;54319;52.038;4.640;2023-02-15T06:17:00;102837.69;;;0.98;97.10
67457;BME280;54319;52.038;4.640;2023-02-15T06:19:27;102836.16;;;0.94;96.95
67457;BME280;54319;52.038;4.640;2023-02-15T06:21:53;102833.25;;;0.97;96.86
67457;BME280;54319;52.038;4.640;2023-02-15T06:24:20;102827.47;;;1.04;96.94
67457;BME280;54319;52.038;4.640;2023-02-15T06:26:47;102830.53;;;1.12;96.78
67457;BME280;54319;52.038;4.640;2023-02-15T06:29:14;102835.72;;;1.15;96.77
67457;BME280;54319;52.038;4.640;2023-02-15T06:31:41;102777.94;;;0.80;96.91
67457;BME280;54319;52.038;4.640;2023-02-15T06:34:09;102829.13;;;1.06;96.79
67457;BME280;54319;52.038;4.640;2023-02-15T06:36:36;102833.63;;;1.06;96.84
67457;BME280;54319;52.038;4.640;2023-02-15T06:39:04;102835.53;;;1.04;97.21
67457;BME280;54319;52.038;4.640;2023-02-15T06:41:31;102829.22;;;1.05;97.00
67457;BME280;54319;52.038;4.640;2023-02-15T06:43:59;102816.16;;;0.98;97.08
67457;BME280;54319;52.038;4.640;2023-02-15T06:46:25;102828.63;;;1.14;96.76
67457;BME280;54319;52.038;4.640;2023-02-15T06:48:52;102810.38;;;1.05;96.90
67457;BME280;54319;52.038;4.640;2023-02-15T06:51:20;102809.34;;;1.07;96.80
67457;BME280;54319;52.038;4.640;2023-02-15T06:53:47;102786.66;;;0.84;96.87
67457;BME280;54319;52.038;4.640;2023-02-15T06:56:14;102830.44;;;1.13;96.90
67457;BME280;54319;52.038;4.640;2023-02-15T06:58:42;102822.94;;;1.19;96.92
67457;BME280;54319;52.038;4.640;2023-02-15T07:01:11;102819.06;;;1.23;96.74
67457;BME280;54319;52.038;4.640;2023-02-15T07:03:38;102828.78;;;1.25;96.70
67457;BME280;54319;52.038;4.640;2023-02-15T07:06:05;102812.63;;;1.25;96.63
67457;BME280;54319;52.038;4.640;2023-02-15T07:08:35;102823.81;;;1.19;96.73
67457;BME280;54319;52.038;4.640;2023-02-15T07:11:03;102816.72;;;1.18;96.68
67457;BME280;54319;52.038;4.640;2023-02-15T07:13:48;102784.31;;;0.92;96.77
67457;BME280;54319;52.038;4.640;2023-02-15T07:16:15;102820.94;;;1.08;97.08
67457;BME280;54319;52.038;4.640;2023-02-15T07:18:43;102820.09;;;1.07;96.84
67457;BME280;54319;52.038;4.640;2023-02-15T07:21:10;102814.59;;;1.09;96.97
67457;BME280;54319;52.038;4.640;2023-02-15T07:23:39;102817.09;;;1.12;96.83
67457;BME280;54319;52.038;4.640;2023-02-15T07:26:06;102808.94;;;1.13;96.89
67457;BME280;54319;52.038;4.640;2023-02-15T07:28:34;102790.72;;;1.04;96.96
67457;BME280;54319;52.038;4.640;2023-02-15T07:31:01;102735.44;;;0.72;96.82
67457;BME280;54319;52.038;4.640;2023-02-15T07:33:30;102804.56;;;1.25;96.66
67457;BME280;54319;52.038;4.640;2023-02-15T07:35:57;102803.91;;;1.22;96.74
67457;BME280;54319;52.038;4.640;2023-02-15T07:38:29;102798.09;;;1.28;96.70
67457;BME280;54319;52.038;4.640;2023-02-15T07:40:59;102798.88;;;1.30;96.58
67457;BME280;54319;52.038;4.640;2023-02-15T07:43:26;102794.16;;;1.34;96.47
67457;BME280;54319;52.038;4.640;2023-02-15T07:45:52;102745.78;;;1.06;96.21
67457;BME280;54319;52.038;4.640;2023-02-15T07:48:20;102770.03;;;1.19;96.42
67457;BME280;54319;52.038;4.640;2023-02-15T07:50:47;102798.38;;;1.38;96.30
67457;BME280;54319;52.038;4.640;2023-02-15T07:53:14;102774.78;;;1.28;96.37
67457;BME280;54319;52.038;4.640;2023-02-15T07:55:41;102752.94;;;1.20;96.40
67457;BME280;54319;52.038;4.640;2023-02-15T07:58:10;102778.06;;;1.47;96.54
67457;BME280;54319;52.038;4.640;2023-02-15T08:00:37;102786.59;;;1.53;96.25
67457;BME280;54319;52.038;4.640;2023-02-15T08:03:18;102773.13;;;1.53;96.04
67457;BME280;54319;52.038;4.640;2023-02-15T08:05:45;102778.31;;;1.56;96.04
67457;BME280;54319;52.038;4.640;2023-02-15T08:08:12;102740.38;;;1.34;96.00
67457;BME280;54319;52.038;4.640;2023-02-15T08:10:57;102776.38;;;1.58;95.66
67457;BME280;54319;52.038;4.640;2023-02-15T08:13:44;102779.16;;;1.57;95.49
67457;BME280;54319;52.038;4.640;2023-02-15T08:16:21;102770.44;;;1.53;95.17
67457;BME280;54319;52.038;4.640;2023-02-15T08:18:49;102743.81;;;1.36;94.96
67457;BME280;54319;52.038;4.640;2023-02-15T08:21:15;102711.00;;;1.30;95.09
67457;BME280;54319;52.038;4.640;2023-02-15T08:23:43;102779.59;;;1.64;94.65
67457;BME280;54319;52.038;4.640;2023-02-15T08:26:09;102773.78;;;1.70;94.48
67457;BME280;54319;52.038;4.640;2023-02-15T08:28:37;102738.16;;;1.53;94.41
67457;BME280;54319;52.038;4.640;2023-02-15T08:31:06;102769.38;;;1.82;94.30
67457;BME280;54319;52.038;4.640;2023-02-15T08:33:35;102775.00;;;1.92;94.16
67457;BME280;54319;52.038;4.640;2023-02-15T08:36:03;102766.28;;;1.88;93.65
67457;BME280;54319;52.038;4.640;2023-02-15T08:38:30;102771.75;;;1.99;93.30
67457;BME280;54319;52.038;4.640;2023-02-15T08:40:57;102763.47;;;2.02;93.24
67457;BME280;54319;52.038;4.640;2023-02-15T08:43:24;102765.19;;;2.03;92.93
67457;BME280;54319;52.038;4.640;2023-02-15T08:45:51;102760.44;;;2.07;92.69
67457;BME280;54319;52.038;4.640;2023-02-15T08:48:20;102765.31;;;2.15;92.71
67457;BME280;54319;52.038;4.640;2023-02-15T08:50:46;102772.81;;;2.23;92.41
67457;BME280;54319;52.038;4.640;2023-02-15T08:53:13;102770.78;;;2.26;91.59
67457;BME280;54319;52.038;4.640;2023-02-15T08:55:40;102772.06;;;2.34;91.76
67457;BME280;54319;52.038;4.640;2023-02-15T08:58:07;102771.94;;;2.48;91.79
67457;BME280;54319;52.038;4.640;2023-02-15T09:00:33;102772.56;;;2.52;91.28
67457;BME280;54319;52.038;4.640;2023-02-15T09:03:00;102783.22;;;2.66;91.53
67457;BME280;54319;52.038;4.640;2023-02-15T09:05:28;102788.00;;;2.74;90.80
67457;BME280;54319;52.038;4.640;2023-02-15T09:07:56;102777.66;;;2.81;90.62
67457;BME280;54319;52.038;4.640;2023-02-15T09:10:22;102780.88;;;2.86;90.29
67457;BME280;54319;52.038;4.640;2023-02-15T09:12:49;102770.59;;;2.91;89.71
67457;BME280;54319;52.038;4.640;2023-02-15T09:15:16;102768.19;;;2.99;89.81
67457;BME280;54319;52.038;4.640;2023-02-15T09:17:43;102744.00;;;2.86;89.33
67457;BME280;54319;52.038;4.640;2023-02-15T09:20:10;102783.56;;;3.35;89.83
67457;BME280;54319;52.038;4.640;2023-02-15T09:22:39;102780.19;;;3.55;89.65
67457;BME280;54319;52.038;4.640;2023-02-15T09:25:05;102776.69;;;3.78;89.09
67457;BME280;54319;52.038;4.640;2023-02-15T09:27:33;102766.16;;;3.74;87.76
67457;BME280;54319;52.038;4.640;2023-02-15T09:30:00;102777.94;;;3.96;87.73
67457;BME280;54319;52.038;4.640;2023-02-15T09:32:28;102764.81;;;4.14;87.92
67457;BME280;54319;52.038;4.640;2023-02-15T09:34:54;102771.00;;;4.28;86.74
67457;BME280;54319;52.038;4.640;2023-02-15T09:37:21;102768.75;;;4.44;86.26
67457;BME280;54319;52.038;4.640;2023-02-15T09:39:49;102764.34;;;4.43;85.13
67457;BME280;54319;52.038;4.640;2023-02-15T09:45:22;102758.56;;;4.48;85.53
67457;BME280;54319;52.038;4.640;2023-02-15T09:50:55;102764.97;;;4.91;85.20
67457;BME280;54319;52.038;4.640;2023-02-15T09:53:47;102740.00;;;4.99;83.93
67457;BME280;54319;52.038;4.640;2023-02-15T09:56:26;102760.69;;;5.32;83.30
67457;BME280;54319;52.038;4.640;2023-02-15T09:59:02;102761.59;;;5.43;83.10
67457;BME280;54319;52.038;4.640;2023-02-15T10:01:38;102758.81;;;5.54;82.50
67457;BME280;54319;52.038;4.640;2023-02-15T10:04:21;102758.72;;;5.77;82.84
67457;BME280;54319;52.038;4.640;2023-02-15T10:06:58;102756.19;;;5.64;81.45
67457;BME280;54319;52.038;4.640;2023-02-15T10:09:39;102746.88;;;5.57;82.32
67457;BME280;54319;52.038;4.640;2023-02-15T10:12:21;102760.97;;;5.72;82.42
67457;BME280;54319;52.038;4.640;2023-02-15T10:18:06;102759.94;;;6.15;81.76
67457;BME280;54319;52.038;4.640;2023-02-15T10:20:45;102734.38;;;6.08;81.51
67457;BME280;54319;52.038;4.640;2023-02-15T10:23:31;102761.16;;;6.42;80.64
67457;BME280;54319;52.038;4.640;2023-02-15T10:26:09;102767.88;;;6.38;80.54
67457;BME280;54319;52.038;4.640;2023-02-15T10:28:45;102766.13;;;6.27;80.78
67457;BME280;54319;52.038;4.640;2023-02-15T10:31:21;102765.75;;;6.42;80.70
67457;BME280;54319;52.038;4.640;2023-02-15T10:33:59;102765.88;;;6.40;80.56
67457;BME280;54319;52.038;4.640;2023-02-15T10:36:40;102749.41;;;6.63;80.31
67457;BME280;54319;52.038;4.640;2023-02-15T10:39:18;102753.94;;;6.62;80.22
67457;BME280;54319;52.038;4.640;2023-02-15T10:41:53;102745.41;;;6.67;79.69
67457;BME280;54319;52.038;4.640;2023-02-15T10:44:38;102748.47;;;6.84;79.95
67457;BME280;54319;52.038;4.640;2023-02-15T10:47:25;102748.75;;;7.00;79.13
67457;BME280;54319;52.038;4.640;2023-02-15T10:50:06;102735.03;;;7.12;78.70
67457;BME280;54319;52.038;4.640;2023-02-15T10:52:46;102749.91;;;7.17;77.79
67457;BME280;54319;52.038;4.640;2023-02-15T10:55:26;102736.63;;;7.24;78.37
67457;BME280;54319;52.038;4.640;2023-02-15T10:58:03;102737.31;;;7.46;77.76
67457;BME280;54319;52.038;4.640;2023-02-15T11:00:38;102722.84;;;7.65;78.22
67457;BME280;54319;52.038;4.640;2023-02-15T11:03:29;102702.56;;;7.49;77.11
67457;BME280;54319;52.038;4.640;2023-02-15T11:06:03;102713.22;;;7.80;77.25
67457;BME280;54319;52.038;4.640;2023-02-15T11:08:35;102693.91;;;7.84;76.44
67457;BME280;54319;52.038;4.640;2023-02-15T11:11:05;102714.88;;;7.91;75.01
67457;BME280;54319;52.038;4.640;2023-02-15T11:13:38;102708.38;;;8.12;74.68
67457;BME280;54319;52.038;4.640;2023-02-15T11:16:12;102705.84;;;8.29;72.29
67457;BME280;54319;52.038;4.640;2023-02-15T11:18:46;102697.78;;;8.19;72.94
67457;BME280;54319;52.038;4.640;2023-02-15T11:21:20;102707.06;;;8.16;72.33
67457;BME280;54319;52.038;4.640;2023-02-15T11:23:49;102701.44;;;8.28;72.81
67457;BME280;54319;52.038;4.640;2023-02-15T11:26:21;102708.13;;;8.33;72.46
67457;BME280;54319;52.038;4.640;2023-02-15T11:28:54;102704.50;;;8.43;72.05
67457;BME280;54319;52.038;4.640;2023-02-15T11:31:26;102697.59;;;8.48;71.88
67457;BME280;54319;52.038;4.640;2023-02-15T11:33:57;102694.50;;;8.43;71.07
67457;BME280;54319;52.038;4.640;2023-02-15T11:36:29;102694.19;;;8.46;72.00
67457;BME280;54319;52.038;4.640;2023-02-15T11:39:04;102687.88;;;8.74;71.18
67457;BME280;54319;52.038;4.640;2023-02-15T11:41:38;102690.03;;;8.70;71.00
67457;BME280;54319;52.038;4.640;2023-02-15T11:44:12;102686.63;;;8.86;70.50
67457;BME280;54319;52.038;4.640;2023-02-15T11:46:43;102696.97;;;9.01;69.82
67457;BME280;54319;52.038;4.640;2023-02-15T11:49:21;102693.25;;;9.02;69.41
67457;BME280;54319;52.038;4.640;2023-02-15T11:51:49;102641.22;;;8.87;69.20
67457;BME280;54319;52.038;4.640;2023-02-15T11:54:17;102674.09;;;9.30;68.53
67457;BME280;54319;52.038;4.640;2023-02-15T11:56:44;102676.94;;;9.28;68.53
67457;BME280;54319;52.038;4.640;2023-02-15T11:59:14;102670.75;;;9.44;68.62
67457;BME280;54319;52.038;4.640;2023-02-15T12:01:45;102661.56;;;9.45;68.36
67457;BME280;54319;52.038;4.640;2023-02-15T12:04:19;102654.09;;;9.47;66.97
67457;BME280;54319;52.038;4.640;2023-02-15T12:06:51;102646.84;;;9.56;67.26
67457;BME280;54319;52.038;4.640;2023-02-15T12:09:25;102650.66;;;9.72;66.97
67457;BME280;54319;52.038;4.640;2023-02-15T12:12:22;102619.06;;;9.52;67.50
67457;BME280;54319;52.038;4.640;2023-02-15T12:14:52;102653.41;;;9.80;66.85
67457;BME280;54319;52.038;4.640;2023-02-15T12:17:23;102653.41;;;10.06;66.73
67457;BME280;54319;52.038;4.640;2023-02-15T12:19:51;102654.22;;;10.07;65.47
67457;BME280;54319;52.038;4.640;2023-02-15T12:22:22;102646.53;;;10.02;65.10
67457;BME280;54319;52.038;4.640;2023-02-15T12:24:52;102658.38;;;10.19;64.87
67457;BME280;54319;52.038;4.640;2023-02-15T12:27:21;102663.19;;;10.25;64.70
67457;BME280;54319;52.038;4.640;2023-02-15T12:29:52;102642.00;;;10.19;64.75
67457;BME280;54319;52.038;4.640;2023-02-15T12:32:24;102653.22;;;10.51;64.43
67457;BME280;54319;52.038;4.640;2023-02-15T12:34:55;102649.63;;;10.50;63.51
67457;BME280;54319;52.038;4.640;2023-02-15T12:37:28;102649.13;;;10.55;63.36
67457;BME280;54319;52.038;4.640;2023-02-15T12:39:57;102651.53;;;10.58;62.26
67457;BME280;54319;52.038;4.640;2023-02-15T12:42:26;102651.31;;;10.43;62.75
67457;BME280;54319;52.038;4.640;2023-02-15T12:44:57;102643.66;;;10.47;63.44
67457;BME280;54319;52.038;4.640;2023-02-15T12:47:27;102624.13;;;10.33;62.69
67457;BME280;54319;52.038;4.640;2023-02-15T12:50:21;102637.00;;;10.49;62.61
67457;BME280;54319;52.038;4.640;2023-02-15T12:52:50;102656.09;;;10.41;62.35
67457;BME280;54319;52.038;4.640;2023-02-15T12:55:20;102642.06;;;10.36;62.15
67457;BME280;54319;52.038;4.640;2023-02-15T12:57:48;102636.84;;;10.42;62.74
67457;BME280;54319;52.038;4.640;2023-02-15T13:00:33;102634.25;;;10.41;62.15
67457;BME280;54319;52.038;4.640;2023-02-15T13:03:03;102638.88;;;10.49;61.92
67457;BME280;54319;52.038;4.640;2023-02-15T13:05:33;102638.00;;;10.40;62.37
67457;BME280;54319;52.038;4.640;2023-02-15T13:08:03;102634.94;;;10.51;62.47
67457;BME280;54319;52.038;4.640;2023-02-15T13:10:36;102635.63;;;10.45;62.43
67457;BME280;54319;52.038;4.640;2023-02-15T13:13:09;102628.47;;;10.52;62.52
67457;BME280;54319;52.038;4.640;2023-02-15T13:15:39;102629.50;;;10.51;62.38
67457;BME280;54319;52.038;4.640;2023-02-15T13:18:14;102623.22;;;10.67;61.94
67457;BME280;54319;52.038;4.640;2023-02-15T13:20:42;102617.59;;;10.69;61.60
67457;BME280;54319;52.038;4.640;2023-02-15T13:23:22;102624.06;;;10.68;61.43
67457;BME280;54319;52.038;4.640;2023-02-15T13:25:51;102611.41;;;10.59;61.53
67457;BME280;54319;52.038;4.640;2023-02-15T13:28:22;102614.50;;;10.55;60.95
67457;BME280;54319;52.038;4.640;2023-02-15T13:30:51;102612.97;;;10.61;61.29